createdAt,value
2019-02-18T00:04:31.173Z,23.6
2019-02-18T00:14:30.379Z,24.3
2019-02-18T00:24:29.590Z,24.9
2019-02-18T00:34:28.790Z,24.1
2019-02-18T00:44:27.998Z,22.8
2019-02-18T00:54:27.200Z,22.9
2019-02-18T01:04:26.408Z,23.1
2019-02-18T01:14:25.645Z,23.4
2019-02-18T01:24:24.817Z,24.3
2019-02-18T01:34:24.020Z,24.6
2019-02-18T01:44:23.226Z,24.3
2019-02-18T01:54:22.431Z,23.8
2019-02-18T02:04:21.635Z,22.6
2019-02-18T02:14:20.839Z,22.8
2019-02-18T02:24:20.044Z,23.3
2019-02-18T02:34:19.251Z,23.6
2019-02-18T02:44:18.455Z,25
2019-02-18T02:54:17.658Z,24.9
2019-02-18T03:04:16.864Z,24.4
2019-02-18T03:14:16.066Z,23.2
2019-02-18T03:24:15.272Z,22.5
2019-02-18T03:34:14.499Z,23.3
2019-02-18T03:44:13.679Z,23.3
2019-02-18T03:54:12.881Z,23.4
2019-02-18T04:04:12.084Z,23.6
2019-02-18T04:14:11.288Z,23.6
2019-02-18T04:24:10.494Z,23.6
2019-02-18T04:34:09.700Z,23.6
2019-02-18T04:44:08.914Z,23.6
2019-02-18T04:54:08.119Z,23.6
2019-02-18T05:04:07.332Z,23.6
2019-02-18T05:14:06.538Z,23.3
2019-02-18T05:24:05.749Z,23.3
2019-02-18T05:34:04.960Z,23.2
2019-02-18T05:44:04.172Z,23.1
2019-02-18T05:54:03.372Z,23.1
2019-02-18T06:04:02.579Z,23.3
2019-02-18T06:14:01.783Z,23.5
2019-02-18T06:24:00.989Z,24.3
2019-02-18T06:34:00.196Z,24.9
2019-02-18T06:43:59.400Z,24.9
2019-02-18T06:53:58.604Z,24.2
2019-02-18T07:03:57.809Z,24
2019-02-18T07:13:57.011Z,24.1
2019-02-18T07:23:56.215Z,23.9
2019-02-18T07:33:55.424Z,23.9
2019-02-18T07:43:54.621Z,24
2019-02-18T07:53:53.827Z,23.6
2019-02-18T08:03:53.035Z,23.6
2019-02-18T08:13:52.347Z,23.7
2019-02-18T08:23:59.558Z,24.5
2019-02-18T08:33:50.647Z,24.4
2019-02-18T08:43:49.854Z,24.2
2019-02-18T08:53:49.055Z,24.1
2019-02-18T09:03:48.261Z,24.4
2019-02-18T09:13:47.464Z,24.9
2019-02-18T09:23:46.668Z,24.8
2019-02-18T09:33:45.870Z,24.9
2019-02-18T09:43:45.082Z,24.4
2019-02-18T09:53:44.282Z,23.8
2019-02-18T10:03:43.488Z,23.9
2019-02-18T10:13:42.690Z,25.8
2019-02-18T10:23:41.896Z,26.7
2019-02-18T10:33:41.099Z,26.8
2019-02-18T10:43:40.304Z,26.1
2019-02-18T10:53:39.532Z,25.6
2019-02-18T11:05:02.405Z,24.9
2019-02-18T11:15:01.613Z,24.6
2019-02-18T11:25:00.818Z,24.8
2019-02-18T11:35:00.592Z,24.9
2019-02-18T11:44:59.236Z,24.5
2019-02-18T11:54:58.494Z,24.3
2019-02-18T12:04:57.661Z,24.4
2019-02-18T12:14:56.950Z,24.6
2019-02-18T12:24:56.240Z,24.6
2019-02-18T12:34:55.529Z,24.9
2019-02-18T12:44:54.817Z,25.1
2019-02-18T12:54:54.167Z,25.3
2019-02-18T13:04:53.347Z,25.1
2019-02-18T13:14:52.554Z,24.9
2019-02-18T13:24:51.756Z,24.7
2019-02-18T13:34:50.959Z,24.6
2019-02-18T13:44:50.161Z,25.3
2019-02-18T13:54:49.369Z,24.6
2019-02-18T14:04:48.567Z,24.9
2019-02-18T14:14:47.770Z,24.7
2019-02-18T14:24:46.974Z,24.8
2019-02-18T14:34:46.177Z,24.3
2019-02-18T14:44:45.379Z,24.3
2019-02-18T14:54:44.582Z,24.1
2019-02-18T15:04:43.785Z,24
2019-02-18T15:14:42.987Z,24.3
2019-02-18T15:24:42.191Z,25.1
2019-02-18T15:34:41.393Z,24.5
2019-02-18T15:44:40.596Z,24.3
2019-02-18T15:54:39.800Z,24.1
2019-02-18T16:04:39.002Z,23.2
2019-02-18T16:14:38.205Z,24
2019-02-18T16:24:37.407Z,24.4
2019-02-18T16:34:36.614Z,24.4
2019-02-18T16:44:35.824Z,24.1
2019-02-18T16:54:35.032Z,23.7
2019-02-18T17:04:34.239Z,23.6
2019-02-18T17:14:33.446Z,24.9
2019-02-18T17:34:31.872Z,24.6
2019-02-18T17:44:31.082Z,24.2
2019-02-18T17:54:30.289Z,23.7
2019-02-18T18:04:29.507Z,24.6
2019-02-18T18:14:28.712Z,24.5
2019-02-18T18:24:27.922Z,24.3
2019-02-18T18:34:27.130Z,23.6
2019-02-18T18:44:26.390Z,23.4
2019-02-18T18:54:25.548Z,23.6
2019-02-18T19:04:24.758Z,24.1
2019-02-18T19:14:23.982Z,24.4
2019-02-18T19:24:23.191Z,24.1
2019-02-18T19:34:22.409Z,23.3
2019-02-18T19:44:21.626Z,23.4
2019-02-18T19:54:20.843Z,23.3
2019-02-18T20:04:20.059Z,23.5
2019-02-18T20:14:19.274Z,23.9
2019-02-18T20:24:18.487Z,25
2019-02-18T20:34:17.701Z,25.1
2019-02-18T20:44:16.914Z,24.5
2019-02-18T20:54:16.129Z,24.1
2019-02-18T21:04:15.367Z,23.3
2019-02-18T21:08:01.788Z,22.9
2019-02-18T21:18:00.998Z,22.9
2019-02-18T21:28:00.236Z,23.3
2019-02-18T21:37:59.415Z,24
2019-02-18T21:47:58.625Z,24.4
2019-02-18T21:57:57.832Z,23.1
2019-02-18T22:07:57.039Z,23.1
2019-02-18T22:17:56.330Z,23.3
2019-02-18T22:27:55.618Z,23.4
2019-02-18T22:37:54.911Z,24
2019-02-18T22:47:54.198Z,24.9
2019-02-18T22:57:53.485Z,24.7
2019-02-18T23:07:52.734Z,24.3
2019-02-18T23:17:51.939Z,22.6
2019-02-18T23:27:51.146Z,23.3
2019-02-18T23:37:50.351Z,23.3
2019-02-18T23:47:49.557Z,23.6
2019-02-18T23:57:48.763Z,25.2
